createdAt,value
2018-11-28T00:00:37.481Z,4.15
2018-11-28T00:03:08.631Z,3.95
2018-11-28T00:05:37.182Z,3.58
2018-11-28T00:08:05.652Z,4.35
2018-11-28T00:10:34.147Z,4.12
2018-11-28T00:13:02.604Z,4.78
2018-11-28T00:15:31.135Z,4.62
2018-11-28T00:17:59.619Z,4.78
2018-11-28T00:20:28.096Z,4.55
2018-11-28T00:22:56.549Z,5.60
2018-11-28T00:25:25.043Z,5.50
2018-11-28T00:27:53.509Z,4.85
2018-11-28T00:30:23.197Z,5.70
2018-11-28T00:32:51.775Z,4.45
2018-11-28T00:35:21.347Z,4.58
2018-11-28T00:37:49.815Z,4.45
2018-11-28T00:40:19.485Z,4.78
2018-11-28T00:42:48.005Z,4.45
2018-11-28T00:45:18.996Z,5.08
2018-11-28T00:47:47.543Z,5.08
2018-11-28T00:50:17.948Z,4.58
2018-11-28T00:52:46.516Z,5.83
2018-11-28T00:55:15.859Z,5.05
2018-11-28T00:57:44.503Z,4.90
2018-11-28T01:00:16.128Z,4.53
2018-11-28T01:02:44.577Z,4.80
2018-11-28T01:05:13.671Z,4.97
2018-11-28T01:07:42.634Z,5.40
2018-11-28T01:10:13.355Z,4.53
2018-11-28T01:12:41.826Z,5.30
2018-11-28T01:15:11.550Z,6.15
2018-11-28T01:17:40.063Z,5.95
2018-11-28T01:20:12.109Z,6.28
2018-11-28T01:22:40.631Z,6.78
2018-11-28T01:25:11.319Z,5.75
2018-11-28T01:27:39.859Z,5.80
2018-11-28T01:30:13.441Z,5.40
2018-11-28T01:32:41.896Z,6.40
2018-11-28T01:35:11.309Z,6.58
2018-11-28T01:37:40.036Z,6.08
2018-11-28T01:40:11.112Z,6.58
2018-11-28T01:42:39.653Z,5.72
2018-11-28T01:45:09.309Z,5.40
2018-11-28T01:47:37.819Z,6.20
2018-11-28T01:50:08.429Z,6.03
2018-11-28T01:52:36.907Z,5.97
2018-11-28T01:55:07.056Z,5.60
2018-11-28T01:57:35.542Z,4.62
2018-11-28T02:00:04.532Z,5.70
2018-11-28T02:02:33.032Z,5.62
2018-11-28T02:05:01.479Z,5.85
2018-11-28T02:07:29.946Z,6.17
2018-11-28T02:09:58.371Z,5.40
2018-11-28T02:12:26.823Z,5.70
2018-11-28T02:14:55.309Z,4.95
2018-11-28T02:17:23.803Z,4.80
2018-11-28T02:19:52.254Z,4.70
2018-11-28T02:22:20.768Z,5.80
2018-11-28T02:24:49.233Z,5.80
2018-11-28T02:27:17.740Z,5.10
2018-11-28T02:29:46.192Z,5.70
2018-11-28T02:32:14.705Z,6.35
2018-11-28T02:34:43.165Z,5.80
2018-11-28T02:37:11.675Z,5.25
2018-11-28T02:39:40.122Z,5.05
2018-11-28T02:42:08.581Z,5.17
2018-11-28T02:44:37.097Z,6.08
2018-11-28T02:47:05.706Z,6.60
2018-11-28T02:49:34.160Z,6.30
2018-11-28T02:52:17.908Z,5.50
2018-11-28T02:54:46.338Z,5.28
2018-11-28T02:57:14.794Z,5.72
2018-11-28T02:59:43.229Z,7.00
2018-11-28T03:02:11.687Z,6.22
2018-11-28T03:04:40.209Z,6.50
2018-11-28T03:07:08.663Z,5.10
2018-11-28T03:09:37.097Z,6.03
2018-11-28T03:12:05.592Z,5.83
2018-11-28T03:14:34.237Z,5.50
2018-11-28T03:17:02.744Z,5.33
2018-11-28T03:19:31.204Z,5.37
2018-11-28T03:21:59.695Z,5.55
2018-11-28T03:24:28.132Z,5.47
2018-11-28T03:26:56.600Z,6.00
2018-11-28T03:29:25.036Z,5.15
2018-11-28T03:31:53.505Z,5.78
2018-11-28T03:34:21.899Z,6.10
2018-11-28T03:36:50.322Z,6.37
2018-11-28T03:39:18.776Z,4.87
2018-11-28T03:41:47.207Z,5.55
2018-11-28T03:44:15.737Z,5.47
2018-11-28T03:46:44.172Z,5.80
2018-11-28T03:49:12.689Z,6.15
2018-11-28T03:51:41.158Z,5.33
2018-11-28T03:54:09.660Z,6.08
2018-11-28T03:56:38.097Z,5.83
2018-11-28T03:59:06.728Z,5.12
2018-11-28T04:01:35.153Z,5.33
2018-11-28T04:04:03.706Z,5.40
2018-11-28T04:06:32.153Z,5.55
2018-11-28T04:09:00.647Z,5.80
2018-11-28T04:11:29.111Z,5.67
2018-11-28T04:13:57.624Z,4.95
2018-11-28T04:16:26.082Z,6.85
2018-11-28T04:18:54.588Z,5.00
2018-11-28T04:21:23.028Z,6.03
2018-11-28T04:23:51.539Z,4.90
2018-11-28T04:26:19.963Z,5.75
2018-11-28T04:28:48.420Z,5.33
2018-11-28T04:31:16.975Z,6.28
2018-11-28T04:33:45.432Z,6.30
2018-11-28T04:36:13.933Z,5.00
2018-11-28T04:38:42.388Z,5.33
2018-11-28T04:41:10.910Z,5.05
2018-11-28T04:43:39.408Z,5.72
2018-11-28T04:46:07.850Z,6.35
2018-11-28T04:48:36.363Z,5.17
2018-11-28T04:51:04.824Z,6.12
2018-11-28T04:53:33.332Z,6.00
2018-11-28T04:56:01.787Z,5.62
2018-11-28T04:58:30.235Z,6.42
2018-11-28T05:00:58.764Z,7.17
2018-11-28T05:03:27.262Z,7.72
2018-11-28T05:05:55.729Z,8.08
2018-11-28T05:08:24.229Z,6.87
2018-11-28T05:10:52.747Z,7.05
2018-11-28T05:13:21.216Z,7.35
2018-11-28T05:15:49.651Z,7.50
2018-11-28T05:18:18.032Z,7.53
2018-11-28T05:20:46.532Z,7.45
2018-11-28T05:23:14.967Z,6.80
2018-11-28T05:25:43.500Z,7.47
2018-11-28T05:28:11.963Z,7.45
2018-11-28T05:30:40.595Z,8.20
2018-11-28T05:33:09.033Z,8.90
2018-11-28T05:35:38.754Z,7.30
2018-11-28T05:38:08.851Z,7.25
2018-11-28T05:40:37.364Z,6.90
2018-11-28T05:43:06.235Z,6.60
2018-11-28T05:45:34.740Z,6.78
2018-11-28T05:48:03.185Z,6.15
2018-11-28T05:50:31.691Z,6.42
2018-11-28T05:53:00.165Z,5.90
2018-11-28T05:55:28.664Z,6.35
2018-11-28T05:57:57.103Z,4.85
2018-11-28T06:00:31.300Z,7.17
2018-11-28T06:02:59.828Z,5.85
2018-11-28T06:05:28.228Z,6.13
2018-11-28T06:07:56.596Z,6.43
2018-11-28T06:10:24.987Z,5.70
2018-11-28T06:12:53.453Z,6.25
2018-11-28T06:15:21.847Z,8.30
2018-11-28T06:17:50.257Z,6.50
2018-11-28T06:20:18.622Z,6.30
2018-11-28T06:22:47.010Z,5.73
2018-11-28T06:25:16.873Z,6.00
2018-11-28T06:27:44.926Z,7.30
2018-11-28T06:30:14.427Z,6.70
2018-11-28T06:32:42.965Z,7.95
2018-11-28T06:35:11.747Z,7.53
2018-11-28T06:37:40.332Z,19.62
2018-11-28T06:40:12.841Z,15.05
2018-11-28T06:42:41.323Z,8.53
2018-11-28T06:45:12.097Z,10.23
2018-11-28T06:47:40.715Z,8.30
2018-11-28T06:50:11.751Z,6.62
2018-11-28T06:52:40.207Z,7.35
2018-11-28T06:55:10.561Z,6.67
2018-11-28T06:57:39.058Z,6.10
2018-11-28T07:00:13.305Z,6.33
2018-11-28T07:02:42.051Z,6.15
2018-11-28T07:05:11.024Z,4.90
2018-11-28T07:07:39.528Z,6.05
2018-11-28T07:10:09.943Z,7.25
2018-11-28T07:12:38.395Z,7.25
2018-11-28T07:15:09.140Z,7.55
2018-11-28T07:17:37.659Z,6.97
2018-11-28T07:20:07.231Z,6.20
2018-11-28T07:22:35.744Z,6.80
2018-11-28T07:25:04.703Z,6.83
2018-11-28T07:27:33.207Z,6.12
2018-11-28T07:30:01.804Z,7.10
2018-11-28T07:32:30.239Z,6.53
2018-11-28T07:34:58.695Z,7.42
2018-11-28T07:37:27.245Z,8.13
2018-11-28T07:39:55.756Z,6.58
2018-11-28T07:42:24.198Z,7.37
2018-11-28T07:44:52.695Z,6.60
2018-11-28T07:47:21.167Z,8.35
2018-11-28T07:49:49.654Z,6.95
2018-11-28T07:52:18.115Z,7.65
2018-11-28T07:54:46.619Z,6.12
2018-11-28T07:57:15.132Z,6.78
2018-11-28T07:59:43.696Z,7.28
2018-11-28T08:02:12.161Z,7.67
2018-11-28T08:04:40.579Z,7.33
2018-11-28T08:07:09.124Z,8.75
2018-11-28T08:09:37.526Z,8.33
2018-11-28T08:12:06.463Z,10.68
2018-11-28T08:14:34.895Z,12.30
2018-11-28T08:17:03.260Z,9.80
2018-11-28T08:19:31.637Z,10.57
2018-11-28T08:22:00.003Z,11.83
2018-11-28T08:24:28.435Z,11.70
2018-11-28T08:26:56.878Z,11.28
2018-11-28T08:29:25.280Z,10.30
2018-11-28T08:31:53.719Z,11.67
2018-11-28T08:34:23.570Z,11.53
2018-11-28T08:36:50.744Z,11.30
2018-11-28T08:39:19.199Z,12.70
2018-11-28T08:41:47.659Z,11.87
2018-11-28T08:44:16.079Z,13.53
2018-11-28T08:46:44.518Z,13.07
2018-11-28T08:49:12.907Z,14.97
2018-11-28T08:51:41.312Z,13.07
2018-11-28T08:54:09.772Z,15.03
2018-11-28T08:56:38.163Z,13.83
2018-11-28T08:59:06.761Z,13.13
2018-11-28T09:01:35.241Z,12.30
2018-11-28T09:04:03.713Z,11.93
2018-11-28T09:06:32.100Z,11.93
2018-11-28T09:09:00.567Z,12.17
2018-11-28T09:11:28.951Z,12.33
2018-11-28T09:13:57.311Z,10.60
2018-11-28T09:16:25.741Z,11.53
2018-11-28T09:18:54.226Z,10.20
2018-11-28T09:21:22.615Z,10.47
2018-11-28T09:23:51.048Z,11.40
2018-11-28T09:26:19.539Z,11.40
2018-11-28T09:28:48.393Z,12.90
2018-11-28T09:31:17.043Z,9.77
2018-11-28T09:33:45.403Z,10.43
2018-11-28T09:36:13.888Z,10.00
2018-11-28T09:38:42.248Z,9.97
2018-11-28T09:41:10.636Z,9.73
2018-11-28T09:43:38.995Z,11.37
2018-11-28T09:46:07.528Z,9.97
2018-11-28T09:48:35.968Z,11.40
2018-11-28T09:51:04.328Z,10.23
2018-11-28T09:53:32.745Z,10.87
2018-11-28T09:56:01.116Z,11.10
2018-11-28T09:58:29.527Z,11.03
2018-11-28T10:00:57.972Z,11.40
2018-11-28T10:03:26.358Z,10.00
2018-11-28T10:05:54.729Z,9.97
2018-11-28T10:08:23.114Z,12.63
2018-11-28T10:10:51.671Z,11.90
2018-11-28T10:13:20.087Z,12.57
2018-11-28T10:15:48.443Z,10.40
2018-11-28T10:18:16.852Z,10.87
2018-11-28T10:20:45.220Z,11.50
2018-11-28T10:23:13.617Z,10.83
2018-11-28T10:25:41.967Z,9.20
2018-11-28T10:28:10.414Z,8.40
2018-11-28T10:30:39.447Z,8.67
2018-11-28T10:33:12.140Z,10.57
2018-11-28T10:35:41.241Z,9.47
2018-11-28T10:38:09.852Z,9.77
2018-11-28T10:40:38.487Z,9.00
2018-11-28T10:43:08.083Z,9.80
2018-11-28T10:45:37.145Z,9.63
2018-11-28T10:48:06.500Z,10.10
2018-11-28T10:50:36.440Z,9.93
2018-11-28T10:53:04.812Z,11.23
2018-11-28T10:55:33.304Z,11.07
2018-11-28T10:58:01.764Z,8.20
2018-11-28T11:01:34.947Z,9.47
2018-11-28T11:04:08.696Z,9.30
2018-11-28T11:07:43.304Z,9.20
2018-11-28T11:10:16.942Z,8.87
2018-11-28T11:12:50.739Z,10.07
2018-11-28T11:15:19.223Z,9.17
2018-11-28T11:17:47.583Z,10.40
2018-11-28T11:20:15.946Z,10.20
2018-11-28T11:22:44.372Z,9.30
2018-11-28T11:25:12.808Z,8.53
2018-11-28T11:27:41.182Z,9.77
2018-11-28T11:30:10.822Z,9.37
2018-11-28T11:32:39.207Z,8.00
2018-11-28T11:35:09.078Z,7.03
2018-11-28T11:37:37.695Z,7.27
2018-11-28T11:40:11.715Z,8.23
2018-11-28T11:42:40.183Z,7.20
2018-11-28T11:45:14.492Z,7.00
2018-11-28T11:47:43.196Z,6.07
2018-11-28T11:50:14.723Z,6.80
2018-11-28T11:52:43.239Z,7.30
2018-11-28T11:55:17.740Z,6.60
2018-11-28T11:57:46.443Z,7.00
2018-11-28T12:00:17.245Z,7.03
2018-11-28T12:02:49.760Z,6.67
2018-11-28T12:05:18.211Z,3.30
2018-11-28T12:07:46.598Z,6.30
2018-11-28T12:10:15.155Z,6.60
2018-11-28T12:12:43.540Z,4.40
2018-11-28T12:15:15.022Z,4.40
2018-11-28T12:17:46.594Z,4.27
2018-11-28T12:20:21.100Z,4.07
2018-11-28T12:22:49.477Z,4.30
2018-11-28T12:25:17.853Z,4.30
2018-11-28T12:27:46.233Z,3.50
2018-11-28T12:30:15.358Z,5.60
2018-11-28T12:32:44.460Z,4.07
2018-11-28T12:35:18.023Z,4.50
2018-11-28T12:37:46.479Z,3.90
2018-11-28T12:40:15.704Z,3.10
2018-11-28T12:42:45.656Z,4.80
2018-11-28T12:45:16.874Z,4.60
2018-11-28T12:47:46.190Z,4.20
2018-11-28T12:50:24.844Z,4.80
2018-11-28T12:52:54.215Z,5.40
2018-11-28T12:55:23.090Z,5.90
2018-11-28T12:57:52.534Z,5.30
2018-11-28T13:00:23.928Z,5.93
2018-11-28T13:02:52.303Z,5.00
2018-11-28T13:05:21.779Z,5.20
2018-11-28T13:07:50.156Z,4.93
2018-11-28T13:10:19.848Z,4.80
2018-11-28T13:12:49.007Z,4.03
2018-11-28T13:15:18.462Z,4.10
2018-11-28T13:17:46.923Z,4.03
2018-11-28T13:20:16.360Z,3.87
2018-11-28T13:22:45.387Z,4.67
2018-11-28T13:25:15.026Z,6.00
2018-11-28T13:27:43.715Z,3.80
2018-11-28T13:30:17.108Z,5.40
2018-11-28T13:32:45.891Z,5.40
2018-11-28T13:35:15.331Z,3.93
2018-11-28T13:37:44.903Z,6.30
2018-11-28T13:40:14.344Z,4.40
2018-11-28T13:42:42.993Z,5.53
2018-11-28T13:45:21.064Z,4.47
2018-11-28T13:47:52.344Z,5.50
2018-11-28T13:50:20.752Z,4.93
2018-11-28T13:52:49.543Z,5.77
2018-11-28T13:55:41.948Z,5.03
2018-11-28T13:57:53.952Z,5.07
2018-11-28T14:00:22.447Z,4.20
2018-11-28T14:02:50.811Z,4.47
2018-11-28T14:05:19.215Z,4.73
2018-11-28T14:07:47.716Z,3.63
2018-11-28T14:10:16.280Z,5.63
2018-11-28T14:12:44.680Z,5.17
2018-11-28T14:15:17.032Z,6.67
2018-11-28T14:17:47.874Z,4.97
2018-11-28T14:20:16.329Z,6.00
2018-11-28T14:22:44.732Z,6.00
2018-11-28T14:25:13.995Z,5.77
2018-11-28T14:27:42.724Z,5.30
2018-11-28T14:30:18.275Z,6.10
2018-11-28T14:32:47.052Z,5.80
2018-11-28T14:35:15.703Z,6.87
2018-11-28T14:37:44.212Z,6.07
2018-11-28T14:40:20.511Z,6.60
2018-11-28T14:42:52.247Z,6.80
2018-11-28T14:45:20.816Z,6.45
2018-11-28T14:47:50.053Z,7.17
2018-11-28T14:50:21.488Z,6.23
2018-11-28T14:52:50.075Z,6.92
2018-11-28T14:55:20.582Z,7.37
2018-11-28T14:57:49.001Z,7.30
2018-11-28T15:00:19.476Z,7.30
2018-11-28T15:02:50.134Z,6.53
2018-11-28T15:07:01.059Z,7.33
2018-11-28T15:09:36.248Z,8.00
2018-11-28T15:12:11.634Z,7.73
2018-11-28T15:14:35.936Z,8.70
2018-11-28T15:17:04.315Z,9.13
2018-11-28T15:19:32.692Z,8.87
2018-11-28T15:22:01.099Z,7.87
2018-11-28T15:24:29.627Z,8.60
2018-11-28T15:26:57.995Z,8.50
2018-11-28T15:29:26.403Z,8.40
2018-11-28T15:31:54.856Z,8.13
2018-11-28T15:34:23.342Z,8.17
2018-11-28T15:36:51.714Z,7.50
2018-11-28T15:39:20.091Z,8.57
2018-11-28T15:41:48.452Z,7.73
2018-11-28T15:44:16.866Z,8.20
2018-11-28T15:46:45.259Z,18.70
2018-11-28T15:49:13.734Z,11.43
2018-11-28T15:51:42.171Z,8.63
2018-11-28T15:54:10.551Z,7.70
2018-11-28T15:56:38.944Z,8.73
2018-11-28T15:59:07.746Z,7.30
2018-11-28T16:01:36.123Z,7.73
2018-11-28T16:04:04.617Z,9.53
2018-11-28T16:06:33.068Z,8.50
2018-11-28T16:09:01.471Z,8.57
2018-11-28T16:11:29.826Z,8.20
2018-11-28T16:13:58.251Z,9.50
2018-11-28T16:16:26.616Z,9.43
2018-11-28T16:18:57.831Z,8.80
2018-11-28T16:21:23.636Z,9.13
2018-11-28T16:23:52.667Z,9.47
2018-11-28T16:26:20.439Z,8.43
2018-11-28T16:28:48.899Z,11.20
2018-11-28T16:31:17.408Z,10.03
2018-11-28T16:33:45.763Z,8.47
2018-11-28T16:36:14.184Z,9.43
2018-11-28T16:38:42.624Z,8.57
2018-11-28T16:41:11.026Z,7.00
2018-11-28T16:43:39.491Z,9.20
2018-11-28T16:46:07.883Z,9.37
2018-11-28T16:48:36.360Z,9.80
2018-11-28T16:51:04.752Z,9.00
2018-11-28T16:53:33.207Z,10.97
2018-11-28T16:56:01.612Z,9.73
2018-11-28T16:58:30.068Z,9.03
2018-11-28T17:00:58.469Z,10.07
2018-11-28T17:03:26.936Z,9.80
2018-11-28T17:05:55.328Z,10.00
2018-11-28T17:08:23.782Z,10.43
2018-11-28T17:10:52.196Z,10.60
2018-11-28T17:13:20.595Z,9.53
2018-11-28T17:15:49.063Z,9.20
2018-11-28T17:18:17.560Z,11.20
2018-11-28T17:20:46.015Z,8.80
2018-11-28T17:23:14.371Z,7.77
2018-11-28T17:25:42.780Z,8.93
2018-11-28T17:28:11.235Z,9.27
2018-11-28T17:30:39.742Z,9.57
2018-11-28T17:33:08.143Z,9.17
2018-11-28T17:35:36.588Z,10.67
2018-11-28T17:38:05.095Z,10.20
2018-11-28T17:40:33.551Z,10.83
2018-11-28T17:43:01.948Z,9.63
2018-11-28T17:45:30.613Z,9.83
2018-11-28T17:47:59.024Z,9.73
2018-11-28T17:50:27.699Z,8.90
2018-11-28T17:53:00.920Z,10.47
2018-11-28T17:55:30.876Z,9.77
2018-11-28T17:57:59.294Z,10.37
2018-11-28T18:00:27.660Z,9.00
2018-11-28T18:02:56.043Z,11.27
2018-11-28T18:05:24.403Z,9.77
2018-11-28T18:07:52.791Z,11.27
2018-11-28T18:10:21.994Z,10.27
2018-11-28T18:13:02.385Z,9.53
2018-11-28T18:15:30.742Z,9.30
2018-11-28T18:17:59.130Z,9.37
2018-11-28T18:20:27.596Z,10.90
2018-11-28T18:22:55.991Z,10.53
2018-11-28T18:25:25.492Z,10.87
2018-11-28T18:27:53.971Z,11.27
2018-11-28T18:30:22.356Z,11.07
2018-11-28T18:32:50.753Z,11.30
2018-11-28T18:35:19.134Z,10.60
2018-11-28T18:37:47.579Z,11.07
2018-11-28T18:40:15.992Z,10.50
2018-11-28T18:42:44.431Z,11.30
2018-11-28T18:45:15.091Z,13.00
2018-11-28T18:47:43.456Z,12.20
2018-11-28T18:50:12.698Z,12.40
2018-11-28T18:52:41.128Z,13.60
2018-11-28T18:55:16.602Z,22.63
2018-11-28T18:57:41.993Z,15.83
2018-11-28T19:00:19.681Z,14.20
2018-11-28T19:02:48.085Z,16.73
2018-11-28T19:05:16.570Z,17.43
2018-11-28T19:07:45.027Z,15.90
2018-11-28T19:10:15.458Z,16.10
2018-11-28T19:12:43.844Z,14.70
2018-11-28T19:15:18.158Z,18.07
2018-11-28T19:17:47.152Z,16.27
2018-11-28T19:20:19.546Z,18.00
2018-11-28T19:22:48.526Z,21.07
2018-11-28T19:25:17.935Z,19.87
2018-11-28T19:27:46.711Z,18.17
2018-11-28T19:30:20.445Z,15.87
2018-11-28T19:32:48.901Z,20.90
2018-11-28T19:35:17.304Z,21.17
2018-11-28T19:37:45.768Z,23.10
2018-11-28T19:40:21.739Z,23.70
2018-11-28T19:42:50.325Z,24.20
2018-11-28T19:45:18.708Z,24.53
2018-11-28T19:47:47.068Z,26.60
2018-11-28T19:50:20.087Z,18.60
2018-11-28T19:52:48.527Z,23.27
2018-11-28T19:55:16.907Z,26.03
2018-11-28T19:57:45.295Z,18.83
2018-11-28T20:00:15.653Z,24.87
2018-11-28T20:02:44.637Z,26.93
2018-11-28T20:05:15.207Z,28.93
2018-11-28T20:07:48.978Z,19.03
2018-11-28T20:10:18.579Z,25.47
2018-11-28T20:12:47.060Z,29.27
2018-11-28T20:15:17.672Z,27.07
2018-11-28T20:17:46.173Z,29.00
2018-11-28T20:20:15.555Z,25.90
2018-11-28T20:22:43.981Z,23.97
2018-11-28T20:25:17.232Z,34.40
2018-11-28T20:27:47.172Z,27.17
2018-11-28T20:30:17.043Z,30.90
2018-11-28T20:32:45.431Z,29.47
2018-11-28T20:35:13.842Z,28.83
2018-11-28T20:37:42.615Z,24.87
2018-11-28T20:40:16.123Z,31.73
2018-11-28T20:42:46.971Z,22.00
2018-11-28T20:45:15.565Z,27.20
2018-11-28T20:47:44.031Z,32.60
2018-11-28T20:50:22.024Z,29.40
2018-11-28T20:52:55.020Z,33.03
2018-11-28T20:55:21.381Z,36.30
2018-11-28T20:57:49.773Z,29.40
2018-11-28T21:00:21.361Z,24.57
2018-11-28T21:02:49.874Z,31.90
2018-11-28T21:05:18.252Z,34.17
2018-11-28T21:07:46.622Z,30.77
2018-11-28T21:10:21.171Z,37.20
2018-11-28T21:12:49.672Z,36.20
2018-11-28T21:15:18.123Z,35.63
2018-11-28T21:17:46.991Z,32.27
2018-11-28T21:20:16.426Z,41.70
2018-11-28T21:22:47.435Z,40.87
2018-11-28T21:25:15.853Z,38.97
2018-11-28T21:27:44.300Z,23.20
2018-11-28T21:30:14.127Z,41.93
2018-11-28T21:32:42.622Z,35.37
2018-11-28T21:35:12.732Z,40.97
2018-11-28T21:37:41.208Z,29.93
2018-11-28T21:40:10.233Z,39.07
2018-11-28T21:42:38.634Z,43.27
2018-11-28T21:45:09.557Z,39.13
2018-11-28T21:47:37.995Z,34.70
2018-11-28T21:50:08.658Z,40.30
2018-11-28T21:52:37.031Z,37.60
2018-11-28T21:55:06.534Z,40.10
2018-11-28T21:57:34.891Z,40.47
2018-11-28T22:00:03.342Z,34.20
2018-11-28T22:02:31.765Z,43.77
2018-11-28T22:05:00.155Z,40.33
2018-11-28T22:07:28.519Z,24.23
2018-11-28T22:09:56.915Z,42.07
2018-11-28T22:12:25.270Z,30.73
2018-11-28T22:14:53.675Z,32.50
2018-11-28T22:17:22.039Z,32.30
2018-11-28T22:19:50.412Z,36.10
2018-11-28T22:22:18.815Z,37.73
2018-11-28T22:24:47.270Z,30.07
2018-11-28T22:27:15.684Z,39.90
2018-11-28T22:29:44.042Z,44.37
2018-11-28T22:32:12.564Z,42.40
2018-11-28T22:34:40.940Z,37.20
2018-11-28T22:37:09.423Z,22.47
2018-11-28T22:39:37.868Z,40.77
2018-11-28T22:42:06.475Z,40.93
2018-11-28T22:44:34.936Z,35.00
2018-11-28T22:47:03.336Z,33.90
2018-11-28T22:49:31.691Z,32.17
2018-11-28T22:52:00.076Z,33.87
2018-11-28T22:54:28.434Z,34.63
2018-11-28T22:56:56.846Z,41.27
2018-11-28T22:59:25.213Z,34.37
2018-11-28T23:03:00.324Z,35.47
2018-11-28T23:05:32.748Z,32.57
2018-11-28T23:08:02.052Z,26.60
2018-11-28T23:10:30.514Z,37.90
2018-11-28T23:12:58.918Z,35.47
2018-11-28T23:15:27.398Z,39.20
2018-11-28T23:17:55.875Z,38.67
2018-11-28T23:20:24.339Z,35.40
2018-11-28T23:22:52.736Z,32.23
2018-11-28T23:25:21.205Z,24.07
2018-11-28T23:27:49.604Z,40.00
2018-11-28T23:30:19.812Z,33.83
2018-11-28T23:32:49.012Z,37.20
2018-11-28T23:35:17.795Z,38.92
2018-11-28T23:37:47.418Z,39.10
2018-11-28T23:40:23.823Z,37.17
2018-11-28T23:42:52.971Z,38.05
2018-11-28T23:45:21.566Z,37.77
2018-11-28T23:47:50.146Z,31.97
2018-11-28T23:50:22.316Z,37.40
2018-11-28T23:52:51.551Z,30.77
2018-11-28T23:55:20.803Z,34.73
2018-11-28T23:57:49.295Z,37.65
